createdAt,value
2022-11-02T00:01:21.036Z,75.68
2022-11-02T00:03:48.445Z,75.31
2022-11-02T00:06:15.016Z,75.93
2022-11-02T00:08:41.654Z,75.86
2022-11-02T00:11:08.505Z,75.50
2022-11-02T00:13:35.076Z,75.17
2022-11-02T00:16:04.619Z,75.25
2022-11-02T00:18:32.704Z,75.07
2022-11-02T00:20:59.477Z,75.85
2022-11-02T00:23:26.040Z,76.07
2022-11-02T00:25:54.291Z,76.21
2022-11-02T00:28:20.950Z,75.95
2022-11-02T00:30:47.731Z,76.14
2022-11-02T00:33:14.402Z,76.72
2022-11-02T00:35:42.186Z,75.81
2022-11-02T00:38:08.911Z,75.42
2022-11-02T00:40:36.158Z,75.37
2022-11-02T00:43:03.294Z,75.57
2022-11-02T00:45:29.866Z,75.81
2022-11-02T00:47:56.405Z,76.23
2022-11-02T00:50:22.974Z,76.04
2022-11-02T00:52:49.580Z,76.04
2022-11-02T00:55:18.026Z,76.64
2022-11-02T00:57:45.020Z,76.86
2022-11-02T01:00:12.499Z,75.78
2022-11-02T01:02:39.601Z,75.05
2022-11-02T01:05:07.843Z,75.25
2022-11-02T01:07:35.160Z,75.90
2022-11-02T01:10:02.147Z,76.90
2022-11-02T01:12:28.743Z,77.07
2022-11-02T01:14:55.304Z,76.93
2022-11-02T01:17:21.909Z,77.08
2022-11-02T01:19:50.469Z,77.43
2022-11-02T01:22:17.906Z,76.87
2022-11-02T01:24:44.462Z,77.06
2022-11-02T01:27:11.046Z,76.80
2022-11-02T01:29:37.593Z,76.27
2022-11-02T01:32:04.327Z,77.69
2022-11-02T01:34:31.027Z,78.13
2022-11-02T01:36:57.639Z,78.05
2022-11-02T01:39:24.179Z,78.45
2022-11-02T01:41:52.582Z,79.89
2022-11-02T01:44:37.486Z,80.16
2022-11-02T01:47:35.506Z,78.87
2022-11-02T01:50:27.686Z,79.67
2022-11-02T01:52:54.528Z,79.75
2022-11-02T01:55:29.381Z,80.38
2022-11-02T01:58:01.527Z,80.61
2022-11-02T02:00:28.325Z,80.46
2022-11-02T02:03:02.264Z,80.52
2022-11-02T02:05:30.797Z,81.56
2022-11-02T02:07:58.005Z,81.69
2022-11-02T02:10:24.803Z,81.19
2022-11-02T02:12:51.603Z,80.21
2022-11-02T02:15:25.277Z,80.94
2022-11-02T02:18:16.408Z,80.80
2022-11-02T02:21:02.750Z,80.81
2022-11-02T02:23:48.149Z,81.67
2022-11-02T02:26:21.669Z,81.26
2022-11-02T02:29:34.462Z,81.65
2022-11-02T02:32:13.023Z,81.77
2022-11-02T02:34:53.533Z,82.24
2022-11-02T02:37:27.925Z,82.96
2022-11-02T02:40:11.216Z,82.92
2022-11-02T02:42:47.281Z,82.82
2022-11-02T02:45:33.093Z,82.07
2022-11-02T02:48:14.651Z,82.43
2022-11-02T02:50:49.055Z,83.01
2022-11-02T02:53:23.241Z,83.02
2022-11-02T02:55:51.785Z,82.77
2022-11-02T02:58:22.966Z,81.98
2022-11-02T03:00:49.805Z,81.29
2022-11-02T03:03:20.762Z,81.79
2022-11-02T03:06:26.371Z,82.84
2022-11-02T03:09:34.413Z,82.86
2022-11-02T03:12:36.491Z,81.56
2022-11-02T03:15:16.699Z,81.70
2022-11-02T03:17:55.770Z,81.01
2022-11-02T03:20:30.710Z,80.77
2022-11-02T03:23:19.098Z,80.55
2022-11-02T03:26:04.442Z,80.76
2022-11-02T03:28:56.758Z,80.81
2022-11-02T03:31:47.265Z,80.41
2022-11-02T03:34:16.494Z,81.29
2022-11-02T03:36:57.109Z,80.29
2022-11-02T03:39:38.138Z,80.43
2022-11-02T03:42:07.291Z,80.80
2022-11-02T03:44:39.197Z,80.34
2022-11-02T03:47:11.360Z,80.46
2022-11-02T03:49:42.031Z,79.88
2022-11-02T03:52:14.144Z,80.10
2022-11-02T03:54:51.909Z,80.01
2022-11-02T03:57:23.778Z,79.44
2022-11-02T03:59:50.871Z,80.15
2022-11-02T04:02:19.667Z,80.38
2022-11-02T04:04:49.997Z,80.27
2022-11-02T04:07:24.926Z,79.78
2022-11-02T04:09:51.638Z,80.16
2022-11-02T04:12:36.974Z,80.25
2022-11-02T04:15:03.802Z,80.44
2022-11-02T04:17:49.123Z,79.55
2022-11-02T04:20:16.752Z,80.71
2022-11-02T04:23:02.259Z,79.47
2022-11-02T04:25:28.898Z,79.09
2022-11-02T04:28:22.068Z,79.03
2022-11-02T04:31:02.251Z,78.38
2022-11-02T04:33:35.050Z,79.79
2022-11-02T04:36:08.958Z,80.37
2022-11-02T04:38:40.462Z,80.36
2022-11-02T04:41:39.025Z,80.63
2022-11-02T04:44:11.136Z,80.22
2022-11-02T04:46:39.595Z,80.58
2022-11-02T04:49:08.533Z,80.89
2022-11-02T04:51:36.605Z,81.11
2022-11-02T04:54:03.951Z,80.16
2022-11-02T04:56:32.063Z,80.07
2022-11-02T04:59:00.363Z,80.85
2022-11-02T05:01:29.893Z,80.17
2022-11-02T05:03:59.033Z,80.37
2022-11-02T05:06:27.603Z,79.91
2022-11-02T05:08:55.482Z,79.45
2022-11-02T05:11:23.312Z,79.25
2022-11-02T05:13:50.731Z,79.16
2022-11-02T05:16:18.801Z,78.75
2022-11-02T05:18:46.453Z,79.48
2022-11-02T05:21:15.420Z,78.78
2022-11-02T05:23:42.177Z,78.71
2022-11-02T05:26:12.031Z,78.31
2022-11-02T05:28:42.406Z,79.34
2022-11-02T05:31:09.146Z,79.02
2022-11-02T05:33:36.810Z,78.90
2022-11-02T05:36:11.032Z,79.07
2022-11-02T05:41:12.456Z,79.37
2022-11-02T05:43:40.329Z,78.59
2022-11-02T05:46:10.543Z,79.28
2022-11-02T05:48:37.059Z,79.00
2022-11-02T05:51:04.539Z,78.31
2022-11-02T05:53:33.731Z,78.30
2022-11-02T05:56:01.981Z,78.79
2022-11-02T05:58:29.522Z,78.80
2022-11-02T06:01:02.744Z,78.29
2022-11-02T06:03:30.177Z,78.97
2022-11-02T06:05:58.084Z,79.42
2022-11-02T06:08:24.945Z,79.15
2022-11-02T06:10:51.670Z,79.12
2022-11-02T06:13:18.301Z,79.34
2022-11-02T06:15:44.930Z,78.96
2022-11-02T06:18:11.591Z,79.53
2022-11-02T06:20:38.216Z,79.40
2022-11-02T06:23:04.870Z,79.04
2022-11-02T06:25:31.706Z,78.94
2022-11-02T06:27:58.536Z,78.74
2022-11-02T06:30:29.057Z,78.51
2022-11-02T06:32:55.765Z,78.33
2022-11-02T06:35:23.035Z,79.27
2022-11-02T06:37:49.659Z,77.88
2022-11-02T06:40:18.334Z,78.33
2022-11-02T06:42:56.727Z,78.62
2022-11-02T06:45:33.711Z,77.85
2022-11-02T06:48:00.332Z,77.51
2022-11-02T06:50:26.904Z,77.43
2022-11-02T06:52:53.425Z,77.85
2022-11-02T06:55:20.094Z,77.59
2022-11-02T06:57:46.637Z,77.45
2022-11-02T07:00:20.917Z,76.78
2022-11-02T07:03:07.963Z,76.73
2022-11-02T07:05:36.950Z,77.80
2022-11-02T07:08:04.370Z,76.92
2022-11-02T07:10:31.540Z,76.64
2022-11-02T07:12:58.734Z,76.55
2022-11-02T07:15:26.507Z,76.86
2022-11-02T07:17:53.521Z,76.18
2022-11-02T07:20:20.549Z,76.24
2022-11-02T07:22:58.047Z,76.24
2022-11-02T07:25:27.108Z,76.20
2022-11-02T07:27:54.944Z,77.17
2022-11-02T07:30:21.561Z,75.82
2022-11-02T07:32:48.546Z,76.07
2022-11-02T07:35:16.429Z,75.33
2022-11-02T07:37:43.104Z,76.21
2022-11-02T07:40:11.826Z,76.07
2022-11-02T07:42:46.487Z,75.59
2022-11-02T07:45:15.704Z,75.55
2022-11-02T07:47:44.307Z,74.84
2022-11-02T07:50:12.469Z,74.69
2022-11-02T07:52:52.785Z,73.69
2022-11-02T07:55:21.745Z,73.39
2022-11-02T07:57:57.712Z,73.05
2022-11-02T08:00:26.246Z,72.94
2022-11-02T08:03:01.002Z,71.62
2022-11-02T08:05:29.417Z,72.29
2022-11-02T08:08:04.639Z,72.70
2022-11-02T08:10:35.494Z,72.54
2022-11-02T08:13:12.281Z,72.79
2022-11-02T08:15:38.939Z,72.24
2022-11-02T08:18:12.947Z,72.63
2022-11-02T08:20:39.576Z,71.86
2022-11-02T08:23:07.739Z,71.98
2022-11-02T08:25:35.386Z,71.99
2022-11-02T08:28:02.365Z,71.20
2022-11-02T08:30:30.541Z,71.43
2022-11-02T08:33:04.526Z,71.94
2022-11-02T08:35:31.294Z,71.46
2022-11-02T08:37:59.867Z,71.36
2022-11-02T08:40:27.149Z,71.89
2022-11-02T08:43:04.602Z,71.51
2022-11-02T08:46:08.514Z,71.17
2022-11-02T08:48:19.148Z,70.19
2022-11-02T08:50:45.715Z,70.24
2022-11-02T08:53:12.267Z,70.63
2022-11-02T08:55:38.875Z,69.90
2022-11-02T08:58:05.905Z,69.49
2022-11-02T09:00:34.405Z,70.25
2022-11-02T09:03:02.255Z,69.23
2022-11-02T09:05:30.586Z,68.38
2022-11-02T09:08:01.669Z,68.09
2022-11-02T09:10:30.611Z,67.40
2022-11-02T09:12:59.649Z,67.97
2022-11-02T09:15:27.462Z,67.71
2022-11-02T09:17:54.324Z,67.07
2022-11-02T09:20:22.362Z,66.60
2022-11-02T09:22:49.627Z,66.83
2022-11-02T09:25:16.648Z,67.12
2022-11-02T09:27:43.602Z,67.46
2022-11-02T09:30:12.625Z,67.25
2022-11-02T09:32:39.732Z,66.98
2022-11-02T09:35:09.816Z,67.41
2022-11-02T09:37:36.921Z,67.37
2022-11-02T09:40:05.292Z,66.52
2022-11-02T09:42:54.823Z,66.75
2022-11-02T09:45:21.743Z,66.56
2022-11-02T09:48:15.757Z,67.14
2022-11-02T09:50:54.272Z,66.39
2022-11-02T09:53:37.730Z,66.28
2022-11-02T09:56:05.551Z,65.69
2022-11-02T09:58:40.458Z,66.17
2022-11-02T10:01:28.364Z,67.24
2022-11-02T10:04:30.859Z,66.47
2022-11-02T10:07:35.256Z,66.86
2022-11-02T10:10:15.644Z,67.33
2022-11-02T10:13:01.282Z,65.39
2022-11-02T10:15:45.020Z,65.12
2022-11-02T10:18:24.589Z,64.61
2022-11-02T10:20:53.260Z,64.52
2022-11-02T10:23:35.629Z,66.23
2022-11-02T10:26:03.082Z,65.45
2022-11-02T10:28:35.993Z,66.05
2022-11-02T10:31:15.852Z,65.19
2022-11-02T10:33:42.482Z,65.92
2022-11-02T10:36:18.244Z,63.98
2022-11-02T10:39:04.473Z,64.47
2022-11-02T10:41:44.298Z,64.01
2022-11-02T10:44:34.599Z,63.50
2022-11-02T10:47:33.381Z,63.36
2022-11-02T10:50:33.719Z,63.04
2022-11-02T10:53:20.421Z,60.99
2022-11-02T10:55:57.909Z,60.08
2022-11-02T10:58:27.942Z,59.95
2022-11-02T11:01:11.954Z,58.70
2022-11-02T11:04:05.181Z,58.11
2022-11-02T11:06:36.743Z,58.48
2022-11-02T11:09:07.400Z,58.01
2022-11-02T11:11:37.718Z,57.17
2022-11-02T11:19:53.057Z,56.25
2022-11-02T11:22:30.198Z,55.05
2022-11-02T11:25:12.071Z,54.95
2022-11-02T11:27:47.579Z,54.47
2022-11-02T11:33:19.358Z,55.69
2022-11-02T11:35:49.533Z,55.41
2022-11-02T11:38:19.933Z,55.31
2022-11-02T11:40:53.615Z,55.20
2022-11-02T11:43:25.948Z,55.24
2022-11-02T11:46:06.817Z,54.85
2022-11-02T11:48:46.392Z,54.57
2022-11-02T11:51:31.198Z,53.65
2022-11-02T11:54:19.313Z,53.18
2022-11-02T11:56:47.240Z,53.11
2022-11-02T11:59:24.338Z,53.33
2022-11-02T12:02:01.515Z,52.64
2022-11-02T12:04:28.320Z,52.37
2022-11-02T12:07:39.126Z,51.90
2022-11-02T12:10:25.972Z,52.45
2022-11-02T12:13:20.261Z,52.08
2022-11-02T12:16:07.051Z,53.05
2022-11-02T12:21:53.942Z,52.89
2022-11-02T12:24:29.593Z,52.00
2022-11-02T12:27:11.257Z,51.39
2022-11-02T12:29:59.820Z,51.39
2022-11-02T12:35:50.379Z,51.00
2022-11-02T12:38:42.840Z,51.46
2022-11-02T12:41:12.720Z,51.42
2022-11-02T12:43:49.414Z,50.84
2022-11-02T12:46:20.520Z,50.51
2022-11-02T12:48:58.131Z,50.62
2022-11-02T12:51:30.566Z,50.49
2022-11-02T12:54:41.518Z,50.69
2022-11-02T12:57:19.802Z,50.86
2022-11-02T12:59:57.417Z,50.35
2022-11-02T13:02:32.912Z,49.95
2022-11-02T13:05:14.622Z,50.17
2022-11-02T13:07:50.345Z,49.87
2022-11-02T13:10:28.232Z,50.02
2022-11-02T13:13:00.540Z,49.59
2022-11-02T13:15:31.794Z,49.79
2022-11-02T13:18:14.535Z,49.39
2022-11-02T13:20:57.701Z,49.88
2022-11-02T13:23:37.161Z,49.74
2022-11-02T13:26:57.120Z,50.40
2022-11-02T13:33:39.666Z,50.16
2022-11-02T13:36:07.226Z,50.17
2022-11-02T13:38:47.118Z,50.70
2022-11-02T13:45:35.237Z,50.87
2022-11-02T13:48:14.662Z,50.82
2022-11-02T13:50:47.365Z,50.29
2022-11-02T13:53:46.296Z,50.38
2022-11-02T13:59:43.327Z,50.85
2022-11-02T14:03:18.964Z,50.90
2022-11-02T14:06:21.703Z,50.41
2022-11-02T14:09:28.108Z,50.65
2022-11-02T14:12:24.366Z,50.73
2022-11-02T14:15:23.499Z,51.41
2022-11-02T14:18:41.638Z,51.09
2022-11-02T14:21:45.908Z,50.42
2022-11-02T14:24:40.762Z,49.80
2022-11-02T14:27:22.886Z,50.87
2022-11-02T14:30:03.178Z,50.41
2022-11-02T14:39:59.765Z,50.28
2022-11-02T14:43:12.984Z,50.90
2022-11-02T14:46:16.529Z,50.39
2022-11-02T14:48:50.926Z,50.38
2022-11-02T14:51:36.921Z,51.03
2022-11-02T14:54:24.707Z,51.29
2022-11-02T14:57:46.044Z,51.43
2022-11-02T15:00:22.031Z,51.43
2022-11-02T15:03:01.002Z,52.04
2022-11-02T15:05:45.995Z,51.27
2022-11-02T15:08:36.915Z,52.08
2022-11-02T15:11:51.564Z,52.28
2022-11-02T15:14:56.095Z,52.40
2022-11-02T15:17:47.680Z,52.30
2022-11-02T15:20:47.759Z,52.88
2022-11-02T15:23:31.282Z,53.29
2022-11-02T15:26:18.178Z,53.93
2022-11-02T15:29:10.646Z,54.01
2022-11-02T15:31:50.215Z,53.62
2022-11-02T15:34:45.143Z,54.24
2022-11-02T15:37:37.343Z,54.41
2022-11-02T15:40:49.481Z,54.54
2022-11-02T15:44:15.578Z,55.03
2022-11-02T15:47:16.720Z,54.55
2022-11-02T15:51:13.836Z,54.01
2022-11-02T15:54:30.281Z,54.68
2022-11-02T15:57:48.706Z,54.43
2022-11-02T16:04:29.087Z,54.70
2022-11-02T16:07:16.459Z,55.34
2022-11-02T16:10:01.131Z,55.24
2022-11-02T16:13:00.533Z,56.27
2022-11-02T16:15:52.949Z,56.46
2022-11-02T16:19:11.416Z,56.69
2022-11-02T16:22:01.114Z,57.48
2022-11-02T16:25:33.868Z,57.98
2022-11-02T16:29:04.434Z,58.08
2022-11-02T16:31:55.095Z,58.23
2022-11-02T16:34:42.450Z,58.60
2022-11-02T16:37:36.275Z,59.23
2022-11-02T16:40:15.891Z,60.37
2022-11-02T16:42:53.633Z,60.05
2022-11-02T16:45:43.155Z,59.86
2022-11-02T16:48:25.923Z,61.00
2022-11-02T16:51:22.710Z,61.63
2022-11-02T16:54:29.349Z,63.19
2022-11-02T16:57:11.701Z,62.59
2022-11-02T17:04:14.500Z,62.97
2022-11-02T17:10:27.595Z,63.02
2022-11-02T17:13:24.539Z,63.71
2022-11-02T17:25:31.344Z,65.35
2022-11-02T17:29:15.109Z,66.89
2022-11-02T17:35:29.564Z,67.70
2022-11-02T17:38:19.100Z,67.78
2022-11-02T17:45:52.877Z,68.25
2022-11-02T17:48:44.097Z,69.13
2022-11-02T17:54:00.606Z,69.71
2022-11-02T17:56:42.225Z,69.60
2022-11-02T18:03:58.000Z,70.34
2022-11-02T18:06:28.425Z,70.75
2022-11-02T18:09:23.159Z,71.03
2022-11-02T18:12:04.328Z,71.18
2022-11-02T18:15:03.195Z,70.93
2022-11-02T18:18:17.915Z,71.54
2022-11-02T18:22:02.657Z,72.12
2022-11-02T18:25:18.385Z,72.60
2022-11-02T18:28:11.167Z,72.84
2022-11-02T18:30:58.618Z,72.28
2022-11-02T18:33:47.724Z,72.61
2022-11-02T18:36:44.998Z,72.55
2022-11-02T18:39:58.191Z,73.05
2022-11-02T18:42:47.383Z,72.89
2022-11-02T18:45:15.925Z,72.77
2022-11-02T18:47:42.836Z,72.74
2022-11-02T18:50:12.372Z,73.43
2022-11-02T18:52:39.466Z,73.38
2022-11-02T18:55:06.684Z,74.00
2022-11-02T18:57:33.332Z,73.83
2022-11-02T19:00:02.453Z,73.38
2022-11-02T19:02:29.711Z,73.37
2022-11-02T19:04:56.608Z,74.35
2022-11-02T19:07:41.887Z,74.72
2022-11-02T19:10:09.706Z,74.83
2022-11-02T19:12:36.604Z,74.45
2022-11-02T19:15:04.303Z,74.17
2022-11-02T19:17:31.431Z,74.48
2022-11-02T19:20:06.300Z,74.77
2022-11-02T19:22:35.926Z,74.64
2022-11-02T19:25:06.394Z,74.85
2022-11-02T19:27:34.367Z,75.10
2022-11-02T19:30:02.664Z,75.68
2022-11-02T19:32:32.491Z,75.30
2022-11-02T19:34:59.084Z,75.53
2022-11-02T19:37:26.060Z,75.35
2022-11-02T19:39:57.874Z,75.91
2022-11-02T19:42:29.879Z,76.17
2022-11-02T19:44:57.579Z,76.09
2022-11-02T19:47:28.261Z,75.91
2022-11-02T19:49:56.084Z,76.00
2022-11-02T19:52:25.546Z,75.81
2022-11-02T19:54:55.730Z,75.84
2022-11-02T19:57:22.390Z,76.80
2022-11-02T19:59:49.034Z,75.91
2022-11-02T20:02:18.579Z,75.96
2022-11-02T20:04:45.470Z,76.50
2022-11-02T20:07:12.036Z,76.22
2022-11-02T20:09:38.589Z,76.29
2022-11-02T20:12:07.487Z,76.70
2022-11-02T20:14:36.327Z,77.11
2022-11-02T20:17:29.767Z,77.50
2022-11-02T20:19:49.472Z,77.00
2022-11-02T20:22:18.174Z,77.49
2022-11-02T20:24:44.708Z,77.49
2022-11-02T20:27:12.749Z,77.37
2022-11-02T20:29:40.518Z,78.22
2022-11-02T20:32:10.179Z,78.32
2022-11-02T20:34:36.717Z,77.90
2022-11-02T20:37:05.007Z,78.25
2022-11-02T20:39:31.604Z,78.80
2022-11-02T20:41:58.143Z,79.43
2022-11-02T20:44:25.017Z,79.15
2022-11-02T20:46:53.270Z,79.13
2022-11-02T20:49:36.351Z,79.82
2022-11-02T20:52:07.979Z,80.13
2022-11-02T20:54:34.522Z,80.64
2022-11-02T20:57:01.351Z,80.25
2022-11-02T20:59:27.926Z,80.53
2022-11-02T21:01:54.571Z,79.96
2022-11-02T21:04:21.897Z,79.40
2022-11-02T21:06:51.882Z,79.58
2022-11-02T21:09:19.149Z,79.99
2022-11-02T21:12:04.446Z,79.83
2022-11-02T21:14:31.123Z,80.31
2022-11-02T21:16:57.781Z,80.05
2022-11-02T21:19:24.395Z,80.31
2022-11-02T21:21:55.104Z,80.58
2022-11-02T21:24:24.773Z,80.71
2022-11-02T21:26:51.532Z,80.64
2022-11-02T21:29:18.150Z,81.22
2022-11-02T21:31:45.306Z,80.84
2022-11-02T21:34:11.845Z,80.33
2022-11-02T21:36:40.574Z,80.72
2022-11-02T21:39:07.660Z,80.49
2022-11-02T21:41:38.349Z,80.47
2022-11-02T21:44:06.915Z,80.29
2022-11-02T21:46:33.444Z,80.25
2022-11-02T21:49:00.010Z,81.29
2022-11-02T21:51:26.809Z,80.75
2022-11-02T21:53:53.467Z,80.82
2022-11-02T21:56:22.976Z,80.27
2022-11-02T21:58:49.646Z,80.25
2022-11-02T22:01:35.080Z,79.79
2022-11-02T22:04:02.415Z,79.16
2022-11-02T22:06:31.468Z,79.94
2022-11-02T22:08:59.363Z,79.71
2022-11-02T22:11:29.233Z,79.56
2022-11-02T22:13:58.176Z,79.21
2022-11-02T22:16:36.471Z,79.96
2022-11-02T22:19:08.174Z,79.95
2022-11-02T22:21:37.872Z,79.75
2022-11-02T22:24:05.596Z,79.20
2022-11-02T22:26:34.779Z,79.40
2022-11-02T22:29:01.891Z,79.51
2022-11-02T22:31:31.586Z,79.72
2022-11-02T22:34:00.644Z,79.67
2022-11-02T22:36:29.558Z,80.03
2022-11-02T22:38:58.508Z,80.05
2022-11-02T22:41:25.756Z,79.32
2022-11-02T22:43:57.926Z,78.52
2022-11-02T22:46:26.505Z,78.19
2022-11-02T22:48:55.391Z,78.43
2022-11-02T22:51:24.804Z,78.69
2022-11-02T22:53:51.701Z,78.52
2022-11-02T22:56:20.866Z,78.50
2022-11-02T22:58:48.433Z,79.70
2022-11-02T23:01:20.985Z,79.71
2022-11-02T23:03:48.415Z,80.12
2022-11-02T23:06:16.126Z,79.53
2022-11-02T23:08:45.755Z,78.89
2022-11-02T23:11:22.627Z,79.03
2022-11-02T23:14:04.179Z,79.42
2022-11-02T23:16:46.801Z,79.50
2022-11-02T23:19:30.925Z,79.48
2022-11-02T23:22:19.288Z,79.11
2022-11-02T23:25:09.807Z,79.58
2022-11-02T23:27:58.922Z,79.60
2022-11-02T23:30:49.659Z,80.32
2022-11-02T23:33:16.742Z,80.44
2022-11-02T23:36:02.301Z,80.73
2022-11-02T23:38:49.132Z,80.63
2022-11-02T23:41:16.944Z,80.60
2022-11-02T23:43:43.559Z,80.45
2022-11-02T23:46:10.405Z,80.94
2022-11-02T23:48:36.927Z,80.51
2022-11-02T23:51:22.654Z,80.18
2022-11-02T23:54:07.418Z,80.26
2022-11-02T23:56:43.433Z,80.18
2022-11-02T23:59:11.552Z,79.94
